Time;durP1;ratioP1;P1;durP2;ratioP2;P2;SDS_P1;SDS_P2;PMS_P1;PMS_P2;Temp;Humidity;BMP_temperature;BMP_pressure;BME280_temperature;BME280_humidity;BME280_pressure;Samples;Min_cycle;Max_cycle;Signal;HPM_P1;HPM_P2
2023/06/21 00:00:39;;;;;;;73.20;16.50;;;24.40;2.20;;;;;;5059778;28;20174;-82
2023/06/21 00:03:04;;;;;;;72.60;17.10;;;24.40;2.40;;;;;;5059963;28;21019;-82
2023/06/21 00:05:33;;;;;;;72.87;17.87;;;24.30;2.80;;;;;;5078027;28;20261;-82
2023/06/21 00:07:59;;;;;;;73.77;17.40;;;24.40;2.90;;;;;;5077455;28;20221;-82
2023/06/21 00:10:27;;;;;;;74.20;18.80;;;24.30;3.70;;;;;;5078176;28;20802;-82
2023/06/21 00:12:53;;;;;;;76.80;19.20;;;24.30;3.40;;;;;;5078032;28;20169;-82
2023/06/21 00:15:20;;;;;;;79.90;19.27;;;24.30;4.60;;;;;;5077282;28;20410;-82
2023/06/21 00:17:46;;;;;;;73.70;18.07;;;24.20;5.40;;;;;;5077451;28;20421;-82
2023/06/21 00:20:15;;;;;;;73.37;18.30;;;24.20;6.70;;;;;;5077854;28;20457;-82
2023/06/21 00:22:45;;;;;;;73.37;20.70;;;24.20;7.10;;;;;;5077085;28;20467;-82
2023/06/21 00:25:11;;;;;;;75.70;21.33;;;24.10;7.30;;;;;;5059267;28;20499;-82
2023/06/21 00:27:37;;;;;;;73.80;19.60;;;24.00;11.90;;;;;;5077035;28;20416;-82
2023/06/21 00:30:03;;;;;;;73.90;22.00;;;24.00;10.80;;;;;;5077680;28;20755;-82
2023/06/21 00:32:29;;;;;;;73.57;20.50;;;24.00;11.70;;;;;;5059432;28;20174;-82
2023/06/21 00:34:55;;;;;;;78.60;24.23;;;24.00;15.10;;;;;;5059599;28;20419;-82
2023/06/21 00:37:20;;;;;;;73.10;19.00;;;24.00;13.70;;;;;;5077043;28;20190;-82
2023/06/21 00:39:46;;;;;;;73.90;20.53;;;24.00;12.20;;;;;;5059376;28;20182;-82
2023/06/21 00:42:11;;;;;;;75.00;22.83;;;24.00;13.10;;;;;;5059705;28;20613;-82
2023/06/21 00:44:37;;;;;;;74.40;19.83;;;24.00;13.30;;;;;;5077429;28;20622;-82
2023/06/21 00:47:04;;;;;;;77.73;22.43;;;23.90;15.50;;;;;;5059332;28;20273;-82
2023/06/21 00:49:30;;;;;;;75.77;19.20;;;23.80;15.90;;;;;;5059483;28;20176;-82
2023/06/21 00:51:59;;;;;;;74.60;17.70;;;23.90;15.10;;;;;;5077672;28;20921;-82
2023/06/21 00:54:30;;;;;;;74.90;19.73;;;23.90;14.10;;;;;;5077553;28;20411;-82
2023/06/21 00:56:57;;;;;;;75.93;21.83;;;23.90;14.70;;;;;;5077427;28;20504;-81
2023/06/21 00:59:27;;;;;;;74.87;19.10;;;23.80;15.10;;;;;;5076917;28;20871;-82
2023/06/21 01:01:55;;;;;;;74.70;19.40;;;23.80;15.40;;;;;;5077580;28;20541;-82
2023/06/21 01:04:22;;;;;;;73.07;18.30;;;23.80;14.80;;;;;;5080782;28;20423;-82
2023/06/21 01:06:59;;;;;;;75.07;19.43;;;23.80;15.20;;;;;;5080340;28;20433;-82
2023/06/21 01:09:56;;;;;;;73.47;18.00;;;23.80;16.10;;;;;;5080606;28;20394;-82
2023/06/21 01:12:37;;;;;;;74.40;18.93;;;23.80;15.90;;;;;;5030336;28;20423;-82
2023/06/21 01:15:04;;;;;;;74.57;19.90;;;23.70;16.10;;;;;;5062857;28;20416;-82
2023/06/21 01:17:34;;;;;;;73.23;18.33;;;23.70;16.30;;;;;;5062810;28;20441;-82
2023/06/21 01:20:08;;;;;;;73.50;19.67;;;23.70;17.80;;;;;;5080054;28;20930;-81
2023/06/21 01:22:59;;;;;;;73.33;20.30;;;23.60;17.90;;;;;;5080234;28;20439;-82
2023/06/21 01:26:02;;;;;;;75.03;20.90;;;23.50;19.20;;;;;;5080330;28;20883;-82
2023/06/21 01:28:42;;;;;;;73.67;21.80;;;23.50;20.20;;;;;;5079998;28;20423;-82
2023/06/21 01:31:09;;;;;;;73.60;18.77;;;23.40;20.70;;;;;;5080656;28;20478;-82
2023/06/21 01:33:36;;;;;;;74.10;19.60;;;23.40;20.40;;;;;;5080637;28;20399;-82
2023/06/21 01:36:04;;;;;;;73.97;19.43;;;23.40;22.20;;;;;;5080459;28;20409;-82
2023/06/21 01:38:30;;;;;;;74.73;18.70;;;23.30;23.00;;;;;;5080107;28;20480;-82
2023/06/21 01:40:56;;;;;;;76.07;22.33;;;23.40;23.10;;;;;;5079885;28;20398;-82
2023/06/21 01:43:22;;;;;;;75.70;22.80;;;23.30;24.20;;;;;;5079471;28;20191;-82
2023/06/21 01:45:50;;;;;;;73.20;18.30;;;23.30;24.70;;;;;;5061889;28;20422;-82
2023/06/21 01:48:17;;;;;;;74.10;20.10;;;23.20;24.90;;;;;;5079425;28;20435;-82
2023/06/21 01:50:44;;;;;;;74.20;20.67;;;23.20;24.40;;;;;;5079504;28;20770;-82
2023/06/21 01:53:13;;;;;;;74.37;21.00;;;23.20;27.00;;;;;;5079784;28;20456;-81
2023/06/21 01:55:41;;;;;;;73.20;19.70;;;23.20;25.80;;;;;;5061957;28;20410;-82
2023/06/21 01:58:06;;;;;;;75.10;20.27;;;23.20;26.00;;;;;;5061548;28;20957;-82
2023/06/21 02:00:32;;;;;;;74.20;19.60;;;23.20;25.90;;;;;;5079593;28;20502;-82
2023/06/21 02:03:05;;;;;;;73.77;20.30;;;23.20;25.90;;;;;;5079848;28;20215;-82
2023/06/21 02:05:32;;;;;;;76.20;23.60;;;23.00;28.00;;;;;;5061315;28;20940;-82
2023/06/21 02:08:00;;;;;;;74.13;22.53;;;23.00;30.70;;;;;;5060913;28;20442;-82
2023/06/21 02:10:26;;;;;;;81.40;31.07;;;23.00;35.70;;;;;;5079749;28;20456;-82
2023/06/21 02:12:53;;;;;;;76.27;27.60;;;22.90;36.30;;;;;;5079295;28;20413;-82
2023/06/21 02:15:19;;;;;;;75.67;24.27;;;23.00;33.10;;;;;;5079602;28;20474;-82
2023/06/21 02:17:49;;;;;;;74.67;23.80;;;23.00;30.60;;;;;;5079036;28;20458;-81
2023/06/21 02:20:16;;;;;;;74.17;21.20;;;23.10;29.70;;;;;;5061248;28;20418;-82
2023/06/21 02:22:43;;;;;;;73.70;21.00;;;23.10;28.80;;;;;;5079497;28;20473;-82
2023/06/21 02:25:09;;;;;;;75.77;24.83;;;23.10;29.30;;;;;;5060893;28;20770;-82
2023/06/21 02:27:35;;;;;;;79.57;23.83;;;23.10;29.20;;;;;;5079341;28;20418;-82
2023/06/21 02:30:01;;;;;;;75.60;22.10;;;23.10;30.00;;;;;;5061282;28;20922;-81
2023/06/21 02:32:26;;;;;;;73.97;21.90;;;23.00;31.80;;;;;;5079223;28;20172;-81
2023/06/21 02:34:52;;;;;;;73.00;18.70;;;23.10;29.30;;;;;;5079131;28;20168;-82
2023/06/21 02:37:17;;;;;;;74.70;21.10;;;23.00;29.10;;;;;;5079058;28;20188;-82
2023/06/21 02:39:43;;;;;;;75.40;25.33;;;23.00;31.10;;;;;;5061143;28;20169;-81
2023/06/21 02:42:09;;;;;;;74.90;19.77;;;23.00;30.00;;;;;;5079227;28;20255;-82
2023/06/21 02:44:34;;;;;;;74.90;21.10;;;23.00;29.30;;;;;;5060737;28;20535;-82
2023/06/21 02:47:01;;;;;;;74.80;22.10;;;22.90;30.00;;;;;;5078019;28;20183;-81
2023/06/21 02:49:26;;;;;;;74.97;21.07;;;22.90;30.00;;;;;;5078734;28;20659;-82
2023/06/21 02:51:52;;;;;;;74.50;22.50;;;22.90;30.80;;;;;;5078447;28;20406;-82
2023/06/21 02:54:19;;;;;;;73.30;19.20;;;22.80;30.90;;;;;;5061074;28;20685;-82
2023/06/21 02:56:44;;;;;;;75.30;22.50;;;22.90;30.90;;;;;;5078471;28;20168;-82
2023/06/21 02:59:11;;;;;;;74.30;21.73;;;22.80;31.10;;;;;;5060687;28;20421;-82
2023/06/21 03:01:36;;;;;;;76.80;21.57;;;22.80;30.00;;;;;;5078339;28;20171;-82
2023/06/21 03:04:03;;;;;;;76.40;24.33;;;22.80;31.00;;;;;;5078455;28;20414;-82
2023/06/21 03:06:33;;;;;;;74.90;23.03;;;22.70;32.00;;;;;;5078480;28;20176;-81
2023/06/21 03:08:59;;;;;;;75.77;22.23;;;22.70;32.50;;;;;;5059819;28;20409;-82
2023/06/21 03:11:25;;;;;;;75.70;23.80;;;22.70;31.80;;;;;;5060509;28;20410;-82
2023/06/21 03:13:51;;;;;;;75.67;24.80;;;22.70;32.20;;;;;;5078245;28;20920;-82
2023/06/21 03:16:17;;;;;;;76.97;28.87;;;22.70;33.90;;;;;;5078467;28;20196;-82
2023/06/21 03:18:42;;;;;;;79.00;30.03;;;22.70;33.90;;;;;;5077647;28;20270;-82
2023/06/21 03:21:08;;;;;;;75.87;22.60;;;22.70;34.60;;;;;;5077981;28;20243;-82
2023/06/21 03:23:35;;;;;;;75.67;23.33;;;22.70;35.00;;;;;;5078422;28;20589;-81
2023/06/21 03:26:01;;;;;;;74.70;21.60;;;22.60;35.80;;;;;;5077503;28;20432;-82
2023/06/21 03:28:27;;;;;;;77.93;25.90;;;22.50;38.60;;;;;;5077726;28;20820;-82
2023/06/21 03:30:53;;;;;;;76.40;28.13;;;22.30;45.10;;;;;;5059830;28;20166;-82
2023/06/21 03:33:18;;;;;;;76.30;28.30;;;22.30;46.70;;;;;;5077618;28;20167;-82
2023/06/21 03:35:44;;;;;;;75.97;22.13;;;22.30;46.30;;;;;;5077655;28;20213;-82
2023/06/21 03:38:10;;;;;;;77.13;28.27;;;22.40;42.20;;;;;;5060251;28;20249;-82
2023/06/21 03:40:35;;;;;;;76.80;26.43;;;22.40;42.20;;;;;;5077564;28;20168;-82
2023/06/21 03:43:01;;;;;;;75.30;25.40;;;22.50;42.00;;;;;;5078517;28;20210;-82
2023/06/21 03:45:27;;;;;;;77.07;29.40;;;22.40;43.40;;;;;;5078349;28;20659;-82
2023/06/21 03:47:52;;;;;;;75.87;25.57;;;22.40;43.10;;;;;;5060053;28;20184;-82
2023/06/21 03:50:18;;;;;;;81.17;28.53;;;22.40;44.20;;;;;;5077964;28;20163;-82
2023/06/21 03:52:43;;;;;;;77.00;26.80;;;22.50;41.40;;;;;;5059953;28;20647;-82
2023/06/21 03:55:09;;;;;;;76.27;25.27;;;22.50;42.60;;;;;;5077368;28;20204;-82
2023/06/21 03:57:38;;;;;;;77.63;24.70;;;22.40;44.40;;;;;;5077464;28;20183;-82
2023/06/21 04:00:06;;;;;;;75.23;23.50;;;22.30;48.00;;;;;;5060141;28;20673;-82
2023/06/21 04:02:33;;;;;;;82.07;27.97;;;22.30;46.50;;;;;;5059340;28;20454;-82
2023/06/21 04:08:19;;;;;;;;;;;;;;;;;;;;;
2023/06/21 04:11:25;;;;;;;76.97;29.00;;;22.10;53.60;;;;;;4960923;29;20471;-83
2023/06/21 04:18:11;;;;;;;77.70;27.20;;;22.20;51.00;;;;;;4980096;28;20446;-83
2023/06/21 04:21:28;;;;;;;78.57;28.10;;;22.20;51.40;;;;;;4947777;28;20846;-83
2023/06/21 04:24:22;;;;;;;76.60;27.10;;;22.30;51.10;;;;;;4980429;28;20474;-82
2023/06/21 04:27:23;;;;;;;77.20;26.97;;;22.30;49.20;;;;;;4981330;28;20395;-82
2023/06/21 04:30:48;;;;;;;77.80;28.73;;;22.30;49.60;;;;;;4960022;29;20443;-82
2023/06/21 04:33:31;;;;;;;;;;;;;;;;;;;;;
2023/06/21 04:36:22;;;;;;;77.30;28.70;;;22.40;48.50;;;;;;4923842;29;20532;-83
2023/06/21 04:39:15;;;;;;;77.53;25.70;;;22.40;50.70;;;;;;4958866;29;20427;-83
2023/06/21 04:42:13;;;;;;;78.27;26.90;;;22.50;52.70;;;;;;4942957;29;20423;-82
2023/06/21 04:48:09;;;;;;;81.20;23.97;;;22.70;44.90;;;;;;4944963;28;20481;-82
2023/06/21 04:51:00;;;;;;;82.80;27.20;;;22.80;47.60;;;;;;4972162;28;20414;-82
2023/06/21 04:53:58;;;;;;;;;;;;;;;;;;;;;
2023/06/21 04:59:35;;;;;;;73.20;16.50;;;23.30;38.40;;;;;;5083756;22;20979;-82
2023/06/21 05:02:21;;;;;;;74.23;18.80;;;23.30;37.50;;;;;;5079365;28;20436;-82
2023/06/21 05:05:11;;;;;;;;;;;;;;;;;;;;;
2023/06/21 05:14:50;;;;;;;;;;;;;;;;;;;;;
2023/06/21 05:17:27;;;;;;;75.77;20.93;;;23.20;35.50;;;;;;5036017;28;20516;-83
2023/06/21 05:19:56;;;;;;;81.00;26.40;;;23.10;40.80;;;;;;5038860;28;20403;-83
2023/06/21 05:26:21;;;;;;;77.57;20.27;;;23.20;38.30;;;;;;4996739;28;20436;-83
2023/06/21 05:35:42;;;;;;;89.50;26.87;;;23.40;36.20;;;;;;4950137;29;20959;-83
2023/06/21 05:38:36;;;;;;;81.20;32.30;;;23.40;34.30;;;;;;5027927;28;20500;-83
2023/06/21 05:44:55;;;;;;;77.90;26.23;;;23.40;44.10;;;;;;5028479;28;20401;-83
2023/06/21 05:54:00;;;;;;;79.47;23.70;;;23.50;45.00;;;;;;4936368;29;20992;-84
2023/06/21 05:56:37;;;;;;;83.20;30.23;;;23.50;48.20;;;;;;4950103;29;20412;-83
2023/06/21 05:59:46;;;;;;;;;;;;;;;;;;;;;
2023/06/21 06:02:27;;;;;;;83.00;29.33;;;23.50;49.00;;;;;;5004131;28;20514;-83
2023/06/21 06:04:53;;;;;;;81.37;27.80;;;23.40;52.10;;;;;;5010205;28;20449;-83
2023/06/21 06:07:45;;;;;;;;;;;;;;;;;;;;;
2023/06/21 06:14:56;;;;;;;;;;;;;;;;;;;;;
2023/06/21 06:20:48;;;;;;;79.67;26.47;;;23.60;47.70;;;;;;4947568;29;20836;-84
2023/06/21 06:23:35;;;;;;;81.60;23.23;;;23.70;46.30;;;;;;4960160;29;20432;-83
2023/06/21 06:29:25;;;;;;;79.17;21.77;;;23.90;37.00;;;;;;5076576;23;20563;-84
2023/06/21 06:31:59;;;;;;;76.97;26.47;;;24.00;34.20;;;;;;5062837;28;20415;-84
2023/06/21 06:34:39;;;;;;;77.37;21.23;;;24.00;41.10;;;;;;5061547;28;20423;-83
2023/06/21 06:40:42;;;;;;;75.67;18.93;;;24.00;33.30;;;;;;5078542;28;20800;-83
2023/06/21 06:43:13;;;;;;;80.80;22.30;;;24.10;29.70;;;;;;5078339;28;20487;-83
2023/06/21 06:45:57;;;;;;;77.70;23.67;;;24.10;30.40;;;;;;5060371;28;20407;-83
2023/06/21 06:48:35;;;;;;;76.93;19.90;;;24.00;38.40;;;;;;5078677;28;20424;-83
2023/06/21 06:51:01;;;;;;;74.37;19.07;;;24.00;32.50;;;;;;5060117;28;20513;-83
2023/06/21 06:53:29;;;;;;;79.40;22.07;;;24.10;30.70;;;;;;5082536;28;20404;-84
2023/06/21 06:55:58;;;;;;;78.90;22.07;;;24.00;32.10;;;;;;5063439;28;20415;-84
2023/06/21 06:58:31;;;;;;;75.37;19.83;;;24.00;31.50;;;;;;5060119;28;20438;-85
2023/06/21 07:00:57;;;;;;;78.73;27.07;;;24.00;33.90;;;;;;5080790;28;20475;-85
2023/06/21 07:03:45;;;;;;;79.17;27.13;;;24.00;35.90;;;;;;5085541;28;20515;-84
2023/06/21 07:06:43;;;;;;;;;;;;;;;;;;;;;
2023/06/21 07:09:09;;;;;;;76.80;21.67;;;24.10;29.30;;;;;;5056579;28;20486;-84
2023/06/21 07:11:36;;;;;;;82.00;33.90;;;24.10;28.20;;;;;;5084198;28;20513;-84
2023/06/21 07:14:01;;;;;;;74.90;21.67;;;24.00;43.90;;;;;;5083783;28;20164;-84
2023/06/21 07:16:34;;;;;;;76.37;24.40;;;24.10;34.20;;;;;;5083251;28;20435;-84
2023/06/21 07:19:02;;;;;;;79.10;24.40;;;24.20;33.90;;;;;;5082504;28;20174;-85
2023/06/21 07:21:28;;;;;;;75.37;21.53;;;24.30;31.20;;;;;;5084544;28;20415;-84
2023/06/21 07:23:54;;;;;;;76.83;22.37;;;24.30;30.20;;;;;;5083638;28;20451;-84
2023/06/21 07:26:19;;;;;;;75.87;20.30;;;24.30;30.10;;;;;;5083364;28;20160;-84
2023/06/21 07:28:45;;;;;;;73.70;17.90;;;24.40;28.50;;;;;;5091603;28;20223;-84
2023/06/21 07:31:11;;;;;;;74.87;17.17;;;24.40;26.20;;;;;;5075384;28;20640;-85
2023/06/21 07:33:40;;;;;;;78.90;26.70;;;24.40;27.10;;;;;;5072042;28;20226;-84
2023/06/21 07:36:06;;;;;;;75.50;16.93;;;24.40;35.20;;;;;;5092212;28;20155;-85
2023/06/21 07:38:35;;;;;;;80.17;20.30;;;24.40;31.50;;;;;;5075878;28;20435;-85
2023/06/21 07:41:10;;;;;;;75.10;18.77;;;24.60;28.00;;;;;;5090288;28;20402;-85
2023/06/21 07:43:39;;;;;;;75.97;22.17;;;24.70;23.60;;;;;;5066080;28;20458;-85
2023/06/21 07:46:14;;;;;;;76.23;22.17;;;24.80;28.60;;;;;;5060435;28;20412;-84
2023/06/21 07:48:40;;;;;;;76.60;16.20;;;24.70;32.20;;;;;;5078861;28;20420;-84
2023/06/21 07:51:06;;;;;;;75.53;12.90;;;24.80;26.90;;;;;;5077531;28;20408;-83
2023/06/21 07:53:35;;;;;;;72.90;14.60;;;25.00;19.00;;;;;;5077123;28;20189;-84
2023/06/21 07:56:03;;;;;;;72.27;12.17;;;25.00;20.20;;;;;;5083814;28;20955;-85
2023/06/21 07:58:29;;;;;;;76.00;15.80;;;25.10;16.90;;;;;;5067288;28;20451;-85
2023/06/21 08:00:55;;;;;;;75.17;9.00;;;25.10;17.50;;;;;;5068204;28;20414;-85
2023/06/21 08:03:21;;;;;;;73.50;10.70;;;25.20;12.50;;;;;;5073747;28;20453;-85
2023/06/21 08:05:46;;;;;;;72.67;9.20;;;25.30;11.20;;;;;;5073222;28;20186;-85
2023/06/21 08:08:17;;;;;;;72.80;10.73;;;25.40;7.90;;;;;;5073568;28;20189;-85
2023/06/21 08:10:46;;;;;;;75.03;11.50;;;25.40;2.40;;;;;;5073631;28;20148;-85
2023/06/21 08:13:12;;;;;;;73.57;11.40;;;25.60;5.60;;;;;;5058930;28;20494;-85
2023/06/21 08:15:37;;;;;;;74.90;11.37;;;25.70;1.40;;;;;;5078113;28;20844;-85
2023/06/21 08:18:03;;;;;;;72.80;11.93;;;25.90;1.00;;;;;;5069248;28;20198;-85
2023/06/21 08:20:29;;;;;;;79.30;11.63;;;25.90;1.00;;;;;;5087767;28;20182;-85
2023/06/21 08:22:56;;;;;;;77.00;14.33;;;25.80;1.00;;;;;;5078010;28;20202;-85
2023/06/21 08:25:21;;;;;;;76.80;11.53;;;25.90;1.00;;;;;;5060296;28;20563;-85
2023/06/21 08:27:47;;;;;;;73.50;13.93;;;25.90;1.00;;;;;;5087196;28;20442;-84
2023/06/21 08:30:13;;;;;;;80.47;12.10;;;26.10;1.00;;;;;;5091598;28;20159;-85
2023/06/21 08:32:38;;;;;;;76.30;12.03;;;26.20;1.00;;;;;;5088970;28;20203;-85
2023/06/21 08:35:05;;;;;;;74.70;13.77;;;26.20;1.00;;;;;;5090818;28;20245;-85
2023/06/21 08:37:31;;;;;;;76.00;13.73;;;26.10;1.00;;;;;;5091314;28;20209;-85
2023/06/21 08:40:01;;;;;;;76.77;13.83;;;26.10;1.00;;;;;;5092652;28;20469;-85
2023/06/21 08:42:26;;;;;;;78.07;14.23;;;26.20;1.00;;;;;;5065685;28;20457;-85
2023/06/21 08:44:59;;;;;;;74.60;14.57;;;26.20;1.00;;;;;;5090990;28;20409;-85
2023/06/21 08:47:28;;;;;;;75.23;12.57;;;26.10;1.00;;;;;;5073386;28;20180;-85
2023/06/21 08:49:57;;;;;;;79.23;11.80;;;26.00;1.00;;;;;;5068683;28;20413;-84
2023/06/21 08:52:27;;;;;;;77.60;13.63;;;26.10;1.00;;;;;;5069672;28;20785;-84
2023/06/21 08:55:00;;;;;;;75.37;13.67;;;26.00;1.00;;;;;;5090294;28;20453;-84
2023/06/21 08:57:29;;;;;;;72.60;11.40;;;26.00;1.00;;;;;;5090436;28;20425;-85
2023/06/21 09:00:40;;;;;;;74.80;11.60;;;26.20;1.00;;;;;;5083105;28;20524;-85
2023/06/21 09:03:31;;;;;;;76.33;12.33;;;26.30;1.00;;;;;;5079649;28;20829;-84
2023/06/21 09:06:12;;;;;;;75.80;11.93;;;26.10;1.00;;;;;;5086539;28;20398;-85
2023/06/21 09:08:44;;;;;;;72.33;11.37;;;26.20;1.00;;;;;;5088606;28;20433;-84
2023/06/21 09:11:41;;;;;;;73.67;10.13;;;26.30;1.00;;;;;;5067407;28;20414;-84
2023/06/21 09:14:19;;;;;;;74.30;11.60;;;26.30;1.00;;;;;;5059717;28;20413;-85
2023/06/21 09:16:46;;;;;;;74.30;10.80;;;26.40;1.00;;;;;;5060002;28;20394;-83
2023/06/21 09:19:15;;;;;;;71.17;10.53;;;26.50;1.00;;;;;;5079358;28;20394;-83
2023/06/21 09:21:59;;;;;;;75.50;11.00;;;26.70;1.00;;;;;;5060383;28;20448;-84
2023/06/21 09:25:12;;;;;;;73.23;11.93;;;26.90;1.00;;;;;;5060004;28;20402;-84
2023/06/21 09:27:50;;;;;;;73.57;11.57;;;27.10;1.00;;;;;;4996474;28;20906;-83
2023/06/21 09:30:19;;;;;;;75.73;10.77;;;27.20;1.00;;;;;;4996059;28;20812;-84
2023/06/21 09:32:52;;;;;;;74.73;10.10;;;27.30;1.00;;;;;;5047864;28;20802;-84
2023/06/21 09:35:27;;;;;;;75.70;9.47;;;27.40;1.00;;;;;;5077580;28;20378;-84
2023/06/21 09:41:03;;;;;;;71.70;10.40;;;27.50;1.00;;;;;;4107324;26;20472;-84
2023/06/21 09:44:03;;;;;;;74.97;10.70;;;27.40;1.00;;;;;;5040722;28;20528;-84
2023/06/21 09:49:49;;;;;;;75.47;10.83;;;26.70;1.00;;;;;;4979043;28;20410;-84
2023/06/21 09:52:49;;;;;;;74.43;10.13;;;26.50;1.00;;;;;;4994670;28;20421;-84
2023/06/21 09:55:17;;;;;;;72.10;9.70;;;26.40;1.00;;;;;;5020842;28;20418;-83
2023/06/21 09:57:52;;;;;;;72.67;10.70;;;26.30;1.00;;;;;;5022745;28;20460;-84
2023/06/21 10:00:18;;;;;;;75.37;11.60;;;26.40;1.00;;;;;;5030691;28;20389;-84
2023/06/21 10:02:57;;;;;;;74.47;10.77;;;26.50;1.00;;;;;;5030963;28;20440;-84
2023/06/21 10:05:23;;;;;;;76.13;11.53;;;26.50;1.00;;;;;;5108036;23;20474;-77
2023/06/21 10:07:48;;;;;;;73.00;10.90;;;26.70;1.00;;;;;;5054937;28;20422;-77
2023/06/21 10:10:14;;;;;;;72.67;10.13;;;27.00;1.00;;;;;;5055101;28;20243;-77
2023/06/21 10:12:54;;;;;;;74.70;10.27;;;27.50;1.00;;;;;;5037159;28;20172;-77
2023/06/21 10:15:20;;;;;;;73.10;9.93;;;27.90;1.00;;;;;;5037163;28;20910;-76
2023/06/21 10:17:46;;;;;;;79.30;10.70;;;28.00;1.00;;;;;;5054832;28;20418;-76
2023/06/21 10:20:14;;;;;;;74.00;10.83;;;27.90;1.00;;;;;;5054779;28;20403;-75
2023/06/21 10:22:43;;;;;;;74.60;12.13;;;27.60;1.00;;;;;;5054713;28;20957;-77
2023/06/21 10:25:10;;;;;;;74.70;10.70;;;27.20;1.00;;;;;;5054875;28;20404;-77
2023/06/21 10:27:37;;;;;;;73.50;9.90;;;27.20;1.00;;;;;;5054850;28;20427;-77
2023/06/21 10:30:04;;;;;;;72.23;9.70;;;27.40;1.00;;;;;;5054899;28;20400;-77
2023/06/21 10:32:33;;;;;;;71.97;10.30;;;27.30;1.00;;;;;;5036735;28;20443;-76
2023/06/21 10:35:05;;;;;;;76.50;8.50;;;27.50;1.00;;;;;;5053826;28;20407;-77
2023/06/21 10:37:39;;;;;;;76.50;9.73;;;27.70;1.00;;;;;;5054983;28;20430;-76
2023/06/21 10:40:06;;;;;;;72.33;8.33;;;27.90;1.00;;;;;;5054769;28;20402;-77
2023/06/21 10:42:32;;;;;;;72.80;8.50;;;28.10;1.00;;;;;;5054973;28;20863;-78
2023/06/21 10:45:03;;;;;;;72.63;9.23;;;28.20;1.00;;;;;;5037417;28;20988;-77
2023/06/21 10:47:30;;;;;;;75.00;10.13;;;27.80;1.00;;;;;;5055319;28;20435;-77
2023/06/21 10:50:00;;;;;;;73.30;9.90;;;27.50;1.00;;;;;;5054853;28;20465;-77
2023/06/21 10:52:28;;;;;;;77.43;9.67;;;27.40;1.00;;;;;;5054525;28;20462;-76
2023/06/21 10:54:57;;;;;;;73.47;8.90;;;27.30;1.00;;;;;;5036678;28;20403;-76
2023/06/21 10:57:28;;;;;;;71.27;9.30;;;27.20;1.00;;;;;;5036485;28;20873;-77
2023/06/21 10:59:56;;;;;;;72.17;9.33;;;27.10;1.00;;;;;;5054273;28;20407;-78
2023/06/21 11:02:25;;;;;;;72.27;10.37;;;27.00;1.00;;;;;;5055019;28;20492;-77
2023/06/21 11:05:13;;;;;;;75.07;9.47;;;27.10;1.00;;;;;;5054554;28;20399;-77
2023/06/21 11:07:53;;;;;;;81.93;9.80;;;27.20;1.00;;;;;;5036638;28;20477;-76
2023/06/21 11:10:30;;;;;;;72.80;9.30;;;27.10;1.00;;;;;;5054446;28;20390;-78
2023/06/21 11:12:57;;;;;;;78.17;17.00;;;27.00;1.00;;;;;;5038416;28;20402;-78
2023/06/21 11:15:26;;;;;;;101.67;68.73;;;27.00;1.00;;;;;;5056595;28;20396;-79
2023/06/21 11:18:10;;;;;;;101.00;84.97;;;26.60;10.50;;;;;;5056227;28;20407;-78
2023/06/21 11:20:57;;;;;;;98.57;70.17;;;26.20;34.50;;;;;;5056177;28;20374;-81
2023/06/21 11:23:23;;;;;;;91.57;64.97;;;25.80;48.50;;;;;;5039614;28;20446;-79
2023/06/21 11:25:53;;;;;;;90.53;59.87;;;25.70;61.40;;;;;;5039624;28;20410;-78
2023/06/21 11:28:19;;;;;;;90.33;54.80;;;25.70;59.20;;;;;;5058127;28;20942;-77
2023/06/21 11:31:08;;;;;;;87.37;50.07;;;25.60;63.50;;;;;;5039733;28;20433;-78
2023/06/21 11:33:48;;;;;;;83.40;41.67;;;25.70;75.80;;;;;;5057355;28;20145;-80
2023/06/21 11:36:16;;;;;;;89.43;42.87;;;25.60;81.20;;;;;;5039376;28;20775;-80
2023/06/21 11:38:57;;;;;;;87.20;42.30;;;25.70;68.80;;;;;;5057176;28;20423;-81
2023/06/21 11:41:45;;;;;;;86.90;45.03;;;25.80;70.30;;;;;;5040487;28;20407;-80
2023/06/21 11:44:25;;;;;;;86.90;38.17;;;25.70;70.80;;;;;;5057114;28;20450;-80
2023/06/21 11:47:03;;;;;;;84.30;37.10;;;25.80;67.20;;;;;;5055697;28;20968;-80
2023/06/21 11:49:33;;;;;;;81.10;33.73;;;25.80;51.00;;;;;;5039820;28;20399;-77
2023/06/21 11:52:05;;;;;;;79.90;29.27;;;25.80;51.30;;;;;;5056836;28;20419;-80
2023/06/21 11:54:32;;;;;;;79.20;24.77;;;25.90;45.70;;;;;;5056536;28;20399;-79
2023/06/21 11:56:58;;;;;;;77.30;17.67;;;26.10;41.10;;;;;;5056672;28;20458;-79
2023/06/21 11:59:25;;;;;;;75.60;17.20;;;26.20;26.70;;;;;;5057284;28;20395;-79
2023/06/21 12:01:51;;;;;;;77.97;22.30;;;26.30;24.60;;;;;;5057902;28;20403;-80
2023/06/21 12:04:26;;;;;;;76.00;19.30;;;26.70;31.60;;;;;;5057622;28;20755;-80
2023/06/21 12:06:53;;;;;;;76.93;21.07;;;27.10;20.10;;;;;;5057186;28;20199;-79
2023/06/21 12:09:19;;;;;;;77.03;12.77;;;27.60;21.20;;;;;;5038739;28;20419;-80
2023/06/21 12:11:47;;;;;;;73.83;13.33;;;28.20;4.90;;;;;;5056839;28;20410;-79
2023/06/21 12:14:14;;;;;;;82.23;13.00;;;28.60;1.00;;;;;;5056763;28;20160;-79
2023/06/21 12:16:41;;;;;;;74.07;12.10;;;28.70;1.00;;;;;;5057597;28;20387;-80
2023/06/21 12:19:10;;;;;;;75.20;12.17;;;28.50;1.00;;;;;;5057366;28;20399;-79
2023/06/21 12:21:38;;;;;;;76.67;9.30;;;28.50;1.00;;;;;;5057078;28;20783;-78
2023/06/21 12:24:05;;;;;;;74.40;9.70;;;28.70;1.00;;;;;;5056804;28;20980;-80
2023/06/21 12:26:31;;;;;;;74.93;8.40;;;28.60;1.00;;;;;;5039537;28;20418;-79
2023/06/21 12:28:56;;;;;;;73.40;9.57;;;28.60;1.00;;;;;;5054927;28;20782;-80
2023/06/21 12:31:25;;;;;;;76.20;9.30;;;28.90;1.00;;;;;;5036571;28;20222;-78
2023/06/21 12:34:00;;;;;;;75.07;7.80;;;29.20;1.00;;;;;;5055677;28;20191;-80
2023/06/21 12:36:29;;;;;;;72.97;8.97;;;29.40;1.00;;;;;;5039025;28;20458;-79
2023/06/21 12:38:55;;;;;;;72.10;9.23;;;29.70;1.00;;;;;;5056934;28;20423;-80
2023/06/21 12:41:24;;;;;;;71.60;7.60;;;30.00;1.00;;;;;;5038531;28;20407;-80
2023/06/21 12:43:56;;;;;;;73.17;6.30;;;30.30;1.00;;;;;;5056697;28;20280;-80
2023/06/21 12:46:22;;;;;;;71.90;6.00;;;30.60;1.00;;;;;;5038927;28;20472;-78
2023/06/21 12:48:55;;;;;;;73.60;6.30;;;30.50;1.00;;;;;;5056675;28;20914;-80
2023/06/21 12:51:25;;;;;;;73.00;5.80;;;30.50;1.00;;;;;;5039776;28;20176;-79
2023/06/21 12:53:56;;;;;;;73.40;5.67;;;30.60;1.00;;;;;;5039882;28;20411;-79
2023/06/21 12:56:25;;;;;;;75.30;6.10;;;30.30;1.00;;;;;;5057092;28;20400;-79
2023/06/21 12:58:51;;;;;;;72.70;5.30;;;30.50;1.00;;;;;;5058334;28;20521;-79
2023/06/21 13:01:17;;;;;;;72.23;5.80;;;30.80;1.00;;;;;;5060165;28;20449;-79
2023/06/21 13:03:42;;;;;;;73.20;5.90;;;30.90;1.00;;;;;;5060454;28;20284;-79
2023/06/21 13:06:08;;;;;;;70.60;4.90;;;30.60;1.00;;;;;;5060535;28;20219;-80
2023/06/21 13:08:34;;;;;;;70.30;5.00;;;30.60;1.00;;;;;;5060248;28;20193;-80
2023/06/21 13:11:00;;;;;;;72.93;5.70;;;30.50;1.00;;;;;;5059943;28;20184;-80
2023/06/21 13:13:26;;;;;;;73.40;5.97;;;30.60;1.00;;;;;;5042743;28;20219;-80
2023/06/21 13:15:53;;;;;;;71.53;5.20;;;30.40;1.00;;;;;;5060618;28;20427;-80
2023/06/21 13:18:19;;;;;;;71.80;4.80;;;30.00;1.00;;;;;;5042486;28;20426;-79
2023/06/21 13:20:46;;;;;;;72.27;5.50;;;29.70;1.00;;;;;;5060417;28;20408;-79
2023/06/21 13:23:12;;;;;;;74.87;6.40;;;29.40;1.00;;;;;;5042403;28;20458;-78
2023/06/21 13:25:38;;;;;;;71.87;5.10;;;29.00;1.00;;;;;;5060214;28;20430;-79
2023/06/21 13:28:04;;;;;;;73.00;5.07;;;29.20;1.00;;;;;;5060136;28;20422;-79
2023/06/21 13:30:30;;;;;;;75.70;6.03;;;29.00;1.00;;;;;;5059859;28;20402;-78
2023/06/21 13:32:55;;;;;;;71.40;5.53;;;28.80;1.00;;;;;;5042258;28;20256;-78
2023/06/21 13:35:21;;;;;;;70.17;5.73;;;28.70;1.00;;;;;;5041777;28;20226;-78
2023/06/21 13:37:47;;;;;;;70.90;5.60;;;28.70;1.00;;;;;;5042257;28;20204;-79
2023/06/21 13:40:13;;;;;;;71.97;6.10;;;28.60;1.00;;;;;;5060265;28;20465;-79
2023/06/21 13:42:39;;;;;;;72.20;5.87;;;28.70;1.00;;;;;;5059420;28;20214;-78
2023/06/21 13:45:05;;;;;;;70.40;5.50;;;28.70;1.00;;;;;;5059278;28;20483;-79
2023/06/21 13:47:31;;;;;;;74.57;6.50;;;28.70;1.00;;;;;;5059439;28;20181;-79
2023/06/21 13:49:56;;;;;;;71.37;6.60;;;28.50;1.00;;;;;;5040826;28;20468;-79
2023/06/21 13:52:24;;;;;;;71.27;6.20;;;28.50;1.00;;;;;;5057891;28;20245;-75
2023/06/21 13:54:50;;;;;;;71.10;5.87;;;28.70;1.00;;;;;;5038623;28;20414;-78
2023/06/21 13:57:16;;;;;;;70.57;5.90;;;28.90;1.00;;;;;;5056177;28;20783;-75
2023/06/21 13:59:47;;;;;;;71.17;5.60;;;29.10;1.00;;;;;;5056097;28;20506;-76
2023/06/21 14:02:13;;;;;;;73.20;6.03;;;29.30;1.00;;;;;;5058279;28;20453;-80
2023/06/21 14:04:40;;;;;;;70.57;5.10;;;29.60;1.00;;;;;;5059105;28;20399;-79
2023/06/21 14:07:10;;;;;;;70.63;4.97;;;29.90;1.00;;;;;;5058661;28;20431;-78